createdAt,value
2019-01-09T00:01:37.850Z,8.20
2019-01-09T00:04:08.172Z,3.67
2019-01-09T00:06:38.537Z,8.33
2019-01-09T00:09:09.041Z,6.53
2019-01-09T00:11:39.412Z,6.33
2019-01-09T00:14:09.730Z,7.77
2019-01-09T00:16:41.154Z,6.40
2019-01-09T00:19:11.490Z,9.23
2019-01-09T00:21:41.844Z,5.60
2019-01-09T00:24:12.152Z,9.33
2019-01-09T00:26:42.489Z,6.77
2019-01-09T00:29:12.819Z,5.67
2019-01-09T00:31:43.168Z,8.43
2019-01-09T00:34:13.478Z,6.60
2019-01-09T00:36:55.903Z,3.07
2019-01-09T00:39:26.295Z,7.80
2019-01-09T00:41:56.651Z,5.03
2019-01-09T00:44:27.080Z,1.53
2019-01-09T00:47:00.685Z,9.23
2019-01-09T00:49:31.040Z,3.93
2019-01-09T00:52:01.392Z,5.63
2019-01-09T00:54:31.695Z,5.23
2019-01-09T00:57:02.068Z,3.70
2019-01-09T00:59:32.404Z,4.90
2019-01-09T01:02:28.823Z,5.27
2019-01-09T01:05:30.692Z,5.93
2019-01-09T01:08:43.666Z,5.93
2019-01-09T01:11:58.003Z,7.50
2019-01-09T01:14:53.244Z,6.00
2019-01-09T01:17:50.602Z,4.80
2019-01-09T01:20:49.310Z,5.10
2019-01-09T01:23:54.566Z,5.20
2019-01-09T01:26:47.910Z,8.73
2019-01-09T01:29:57.416Z,4.60
2019-01-09T01:32:38.567Z,3.60
2019-01-09T01:35:38.616Z,8.23
2019-01-09T01:38:43.120Z,4.27
2019-01-09T01:41:44.974Z,6.73
2019-01-09T01:44:36.399Z,5.07
2019-01-09T01:47:38.667Z,5.57
2019-01-09T01:50:39.369Z,8.37
2019-01-09T01:53:36.885Z,4.73
2019-01-09T01:56:36.937Z,3.30
2019-01-09T01:59:24.227Z,5.00
2019-01-09T02:02:24.145Z,5.40
2019-01-09T02:05:24.575Z,2.87
2019-01-09T02:08:35.271Z,3.77
2019-01-09T02:11:42.622Z,5.50
2019-01-09T02:14:50.922Z,5.60
2019-01-09T02:17:49.150Z,6.23
2019-01-09T02:20:46.515Z,7.60
2019-01-09T02:23:28.411Z,5.63
2019-01-09T02:26:51.778Z,6.77
2019-01-09T02:29:47.297Z,7.83
2019-01-09T02:32:33.971Z,6.07
2019-01-09T02:35:04.644Z,5.07
2019-01-09T02:37:35.093Z,6.70
2019-01-09T02:40:05.887Z,4.30
2019-01-09T02:42:36.284Z,5.58
2019-01-09T02:45:07.205Z,4.30
2019-01-09T02:47:37.587Z,7.90
2019-01-09T02:50:09.096Z,3.10
2019-01-09T02:52:39.493Z,5.00
2019-01-09T02:55:10.102Z,4.77
2019-01-09T02:57:40.518Z,6.90
2019-01-09T03:00:12.717Z,4.33
2019-01-09T03:02:43.046Z,6.50
2019-01-09T03:05:13.404Z,4.10
2019-01-09T03:07:43.717Z,5.77
2019-01-09T03:10:14.281Z,2.83
2019-01-09T03:12:46.134Z,5.50
2019-01-09T03:15:16.643Z,4.13
2019-01-09T03:17:47.035Z,6.10
2019-01-09T03:20:17.422Z,3.83
2019-01-09T03:22:47.799Z,9.03
2019-01-09T03:25:19.235Z,4.47
2019-01-09T03:27:49.554Z,8.47
2019-01-09T03:30:19.924Z,7.10
2019-01-09T03:32:50.381Z,7.97
2019-01-09T03:35:20.785Z,11.63
2019-01-09T03:37:51.134Z,12.20
2019-01-09T03:40:21.498Z,6.27
2019-01-09T03:42:51.848Z,8.30
2019-01-09T03:45:22.160Z,9.43
2019-01-09T03:47:52.494Z,13.23
2019-01-09T03:50:22.797Z,7.80
2019-01-09T03:52:53.134Z,8.77
2019-01-09T03:55:23.461Z,7.13
2019-01-09T03:57:53.806Z,10.23
2019-01-09T04:00:24.132Z,8.23
2019-01-09T04:02:55.376Z,12.07
2019-01-09T04:05:25.774Z,5.00
2019-01-09T04:07:56.118Z,7.93
2019-01-09T04:10:26.479Z,7.73
2019-01-09T04:12:56.800Z,8.60
2019-01-09T04:15:27.115Z,5.03
2019-01-09T04:17:57.477Z,6.10
2019-01-09T04:20:27.825Z,10.27
2019-01-09T04:22:58.173Z,7.63
2019-01-09T04:25:28.482Z,8.13
2019-01-09T04:27:58.843Z,6.93
2019-01-09T04:30:29.231Z,7.10
2019-01-09T04:32:59.606Z,8.07
2019-01-09T04:35:29.926Z,4.03
2019-01-09T04:38:00.256Z,6.40
2019-01-09T04:40:30.596Z,6.17
2019-01-09T04:43:00.952Z,11.27
2019-01-09T04:45:34.450Z,8.60
2019-01-09T04:48:04.841Z,6.17
2019-01-09T04:50:35.158Z,7.37
2019-01-09T04:53:05.534Z,8.20
2019-01-09T04:55:35.859Z,5.67
2019-01-09T04:58:06.206Z,7.80
2019-01-09T05:00:36.559Z,4.85
2019-01-09T05:03:07.470Z,6.17
2019-01-09T05:05:37.975Z,7.33
2019-01-09T05:08:08.359Z,6.08
2019-01-09T05:10:38.663Z,5.43
2019-01-09T05:13:09.049Z,5.73
2019-01-09T05:15:39.493Z,6.97
2019-01-09T05:18:09.978Z,6.10
2019-01-09T05:20:40.301Z,9.68
2019-01-09T05:23:10.698Z,7.97
2019-01-09T05:25:41.051Z,6.70
2019-01-09T05:28:11.419Z,6.37
2019-01-09T05:30:41.781Z,6.62
2019-01-09T05:33:12.164Z,5.33
2019-01-09T05:35:42.598Z,5.37
2019-01-09T05:38:12.986Z,9.93
2019-01-09T05:40:43.593Z,7.83
2019-01-09T05:45:57.802Z,4.70
2019-01-09T05:48:29.331Z,5.70
2019-01-09T05:50:59.812Z,6.27
2019-01-09T05:53:31.454Z,6.07
2019-01-09T05:56:01.809Z,4.40
2019-01-09T05:58:32.530Z,10.53
2019-01-09T06:01:02.842Z,5.40
2019-01-09T06:03:33.190Z,6.23
2019-01-09T06:06:03.519Z,6.97
2019-01-09T06:08:35.726Z,5.97
2019-01-09T06:11:05.838Z,8.73
2019-01-09T06:13:36.203Z,10.13
2019-01-09T06:16:06.510Z,7.50
2019-01-09T06:18:36.867Z,5.27
2019-01-09T06:21:07.235Z,4.17
2019-01-09T06:23:37.580Z,8.40
2019-01-09T06:26:07.910Z,5.10
2019-01-09T06:28:38.231Z,8.90
2019-01-09T06:31:08.554Z,7.53
2019-01-09T06:33:38.895Z,8.93
2019-01-09T06:36:09.203Z,6.40
2019-01-09T06:38:39.574Z,6.07
2019-01-09T06:41:09.869Z,9.20
2019-01-09T06:43:40.285Z,7.50
2019-01-09T06:46:10.658Z,4.97
2019-01-09T06:48:41.014Z,6.53
2019-01-09T06:51:11.347Z,8.17
2019-01-09T06:53:41.752Z,3.20
2019-01-09T06:56:12.071Z,7.03
2019-01-09T06:58:42.414Z,6.07
2019-01-09T07:01:13.038Z,5.43
2019-01-09T07:03:43.379Z,4.73
2019-01-09T07:06:15.506Z,9.43
2019-01-09T07:08:45.905Z,6.00
2019-01-09T07:11:16.222Z,8.13
2019-01-09T07:13:46.558Z,6.50
2019-01-09T07:16:16.905Z,6.43
2019-01-09T07:18:47.256Z,7.63
2019-01-09T07:21:17.589Z,7.20
2019-01-09T07:23:47.926Z,24.33
2019-01-09T07:26:18.234Z,9.07
2019-01-09T07:28:48.589Z,9.10
2019-01-09T07:31:18.915Z,6.67
2019-01-09T07:33:49.306Z,4.27
2019-01-09T07:36:19.669Z,7.93
2019-01-09T07:38:50.086Z,8.90
2019-01-09T07:41:20.475Z,7.77
2019-01-09T07:43:50.824Z,7.07
2019-01-09T07:46:21.143Z,8.73
2019-01-09T07:48:51.527Z,8.10
2019-01-09T07:51:21.891Z,10.33
2019-01-09T07:53:52.287Z,10.53
2019-01-09T07:56:22.703Z,6.57
2019-01-09T07:58:53.334Z,9.03
2019-01-09T08:01:23.639Z,9.53
2019-01-09T08:03:54.053Z,10.23
2019-01-09T08:06:24.418Z,9.43
2019-01-09T08:08:54.890Z,7.23
2019-01-09T08:11:26.685Z,10.50
2019-01-09T08:13:57.225Z,7.97
2019-01-09T08:16:27.579Z,8.83
2019-01-09T08:18:57.935Z,10.63
2019-01-09T08:21:28.384Z,8.77
2019-01-09T08:23:58.780Z,8.90
2019-01-09T08:26:30.466Z,10.67
2019-01-09T08:29:00.896Z,11.57
2019-01-09T08:31:31.276Z,8.75
2019-01-09T08:34:01.666Z,11.20
2019-01-09T08:36:32.005Z,11.30
2019-01-09T08:39:02.355Z,5.63
2019-01-09T08:41:34.054Z,7.95
2019-01-09T08:44:04.425Z,6.50
2019-01-09T08:46:34.786Z,8.47
2019-01-09T08:49:05.110Z,4.20
2019-01-09T08:51:35.606Z,7.97
2019-01-09T08:54:05.957Z,7.07
2019-01-09T08:56:36.376Z,9.03
2019-01-09T08:59:06.831Z,7.77
2019-01-09T09:01:37.207Z,8.23
2019-01-09T09:04:07.551Z,7.13
2019-01-09T09:06:38.016Z,7.17
2019-01-09T09:09:08.880Z,8.23
2019-01-09T09:11:39.187Z,7.40
2019-01-09T09:14:10.619Z,7.57
2019-01-09T09:16:41.202Z,12.10
2019-01-09T09:19:11.639Z,9.90
2019-01-09T09:21:41.961Z,8.57
2019-01-09T09:24:12.363Z,8.93
2019-01-09T09:26:42.934Z,6.43
2019-01-09T09:29:13.293Z,9.17
2019-01-09T09:31:43.695Z,8.27
2019-01-09T09:34:14.140Z,6.20
2019-01-09T09:36:44.462Z,7.13
2019-01-09T09:39:15.369Z,6.57
2019-01-09T09:41:45.781Z,9.67
2019-01-09T09:44:16.983Z,10.57
2019-01-09T09:46:47.366Z,9.97
2019-01-09T09:49:17.812Z,8.13
2019-01-09T09:51:48.159Z,10.50
2019-01-09T09:54:19.677Z,7.63
2019-01-09T09:56:49.999Z,9.97
2019-01-09T09:59:20.359Z,10.45
2019-01-09T10:01:50.675Z,8.87
2019-01-09T10:04:21.024Z,9.67
2019-01-09T10:06:51.336Z,7.87
2019-01-09T10:09:21.683Z,10.30
2019-01-09T10:11:52.011Z,8.83
2019-01-09T10:14:22.344Z,9.33
2019-01-09T10:16:52.661Z,8.20
2019-01-09T10:19:23.080Z,9.10
2019-01-09T10:21:53.390Z,11.00
2019-01-09T10:24:23.752Z,9.53
2019-01-09T10:26:59.337Z,9.73
2019-01-09T10:29:28.881Z,8.70
2019-01-09T10:31:59.349Z,11.30
2019-01-09T10:34:29.667Z,10.30
2019-01-09T10:36:59.986Z,6.93
2019-01-09T10:39:30.341Z,8.00
2019-01-09T10:42:00.673Z,8.40
2019-01-09T10:44:31.018Z,8.27
2019-01-09T10:47:01.350Z,7.37
2019-01-09T10:49:31.730Z,10.30
2019-01-09T10:52:02.076Z,8.97
2019-01-09T10:54:32.382Z,7.67
2019-01-09T10:57:02.756Z,8.20
2019-01-09T10:59:33.071Z,6.87
2019-01-09T11:02:03.528Z,8.23
2019-01-09T11:04:33.879Z,7.73
2019-01-09T11:07:04.234Z,9.93
2019-01-09T11:09:34.689Z,8.15
2019-01-09T11:12:05.222Z,5.27
2019-01-09T11:14:35.610Z,7.05
2019-01-09T11:17:06.089Z,6.20
2019-01-09T11:19:36.468Z,6.35
2019-01-09T11:22:07.061Z,7.40
2019-01-09T11:24:37.427Z,7.97
2019-01-09T11:27:07.810Z,5.33
2019-01-09T11:29:38.146Z,5.57
2019-01-09T11:32:09.602Z,5.80
2019-01-09T11:34:40.489Z,6.03
2019-01-09T11:37:11.156Z,7.50
2019-01-09T11:39:41.444Z,7.12
2019-01-09T11:42:11.863Z,5.90
2019-01-09T11:44:42.259Z,5.92
2019-01-09T11:47:12.647Z,12.53
2019-01-09T11:49:42.988Z,11.10
2019-01-09T11:52:13.593Z,13.33
2019-01-09T11:54:44.011Z,9.63
2019-01-09T11:57:14.481Z,9.70
2019-01-09T11:59:45.077Z,13.77
2019-01-09T12:02:21.968Z,9.23
2019-01-09T12:04:47.406Z,13.50
2019-01-09T12:07:17.846Z,11.10
2019-01-09T12:09:48.156Z,6.67
2019-01-09T12:12:18.581Z,8.30
2019-01-09T12:14:48.905Z,10.53
2019-01-09T12:17:19.314Z,6.37
2019-01-09T12:19:49.653Z,9.43
2019-01-09T12:22:20.002Z,6.43
2019-01-09T12:24:50.407Z,10.87
2019-01-09T12:27:20.751Z,9.70
2019-01-09T12:29:51.084Z,6.10
2019-01-09T12:32:23.720Z,9.43
2019-01-09T12:34:54.052Z,6.20
2019-01-09T12:37:24.425Z,8.07
2019-01-09T12:39:55.254Z,9.13
2019-01-09T12:42:25.630Z,8.73
2019-01-09T12:44:55.944Z,6.00
2019-01-09T12:47:26.536Z,6.90
2019-01-09T12:49:56.877Z,7.17
2019-01-09T12:52:27.264Z,10.13
2019-01-09T12:54:57.654Z,13.83
2019-01-09T12:57:28.035Z,9.77
2019-01-09T12:59:58.369Z,9.77
2019-01-09T13:02:28.723Z,10.47
2019-01-09T13:04:59.046Z,10.20
2019-01-09T13:07:29.866Z,8.93
2019-01-09T13:10:00.256Z,12.27
2019-01-09T13:12:30.630Z,12.57
2019-01-09T13:15:00.953Z,9.80
2019-01-09T13:17:32.288Z,15.07
2019-01-09T13:20:03.005Z,8.60
2019-01-09T13:22:33.633Z,7.57
2019-01-09T13:25:04.299Z,10.70
2019-01-09T13:27:34.646Z,9.07
2019-01-09T13:30:07.091Z,9.00
2019-01-09T13:32:37.491Z,7.67
2019-01-09T13:35:08.817Z,9.60
2019-01-09T13:37:39.162Z,7.47
2019-01-09T13:40:13.244Z,7.20
2019-01-09T13:42:43.607Z,10.17
2019-01-09T13:45:16.414Z,8.07
2019-01-09T13:47:46.866Z,8.77
2019-01-09T13:50:18.382Z,6.73
2019-01-09T13:52:48.726Z,9.20
2019-01-09T13:55:19.132Z,8.17
2019-01-09T13:57:51.154Z,7.23
2019-01-09T14:00:24.633Z,9.73
2019-01-09T14:02:55.020Z,9.97
2019-01-09T14:05:25.827Z,5.90
2019-01-09T14:07:56.417Z,7.53
2019-01-09T14:10:27.633Z,5.03
2019-01-09T14:12:58.025Z,14.33
2019-01-09T14:15:28.359Z,7.40
2019-01-09T14:17:58.926Z,7.50
2019-01-09T14:20:29.292Z,6.07
2019-01-09T14:22:59.687Z,4.03
2019-01-09T14:25:30.134Z,6.67
2019-01-09T14:28:01.566Z,5.33
2019-01-09T14:30:32.313Z,6.80
2019-01-09T14:33:02.681Z,6.27
2019-01-09T14:35:33.176Z,5.97
2019-01-09T14:38:04.010Z,10.97
2019-01-09T14:40:34.754Z,6.67
2019-01-09T14:43:05.800Z,6.80
2019-01-09T14:45:37.368Z,5.43
2019-01-09T14:48:07.859Z,4.37
2019-01-09T14:50:39.626Z,4.85
2019-01-09T14:53:11.081Z,7.50
2019-01-09T14:55:41.502Z,7.37
2019-01-09T14:58:11.990Z,7.90
2019-01-09T15:00:42.314Z,8.43
2019-01-09T15:03:12.727Z,7.13
2019-01-09T15:05:43.050Z,10.33
2019-01-09T15:08:13.448Z,10.77
2019-01-09T15:10:43.760Z,7.47
2019-01-09T15:13:14.162Z,7.83
2019-01-09T15:15:44.536Z,6.87
2019-01-09T15:18:14.950Z,5.73
2019-01-09T15:20:45.322Z,6.73
2019-01-09T15:23:15.735Z,6.30
2019-01-09T15:25:46.047Z,10.17
2019-01-09T15:28:16.471Z,6.33
2019-01-09T15:30:46.882Z,7.27
2019-01-09T15:33:17.477Z,6.67
2019-01-09T15:35:48.555Z,8.40
2019-01-09T15:38:20.145Z,6.67
2019-01-09T15:40:50.498Z,7.60
2019-01-09T15:43:20.917Z,7.87
2019-01-09T15:45:51.253Z,7.37
2019-01-09T15:48:21.673Z,8.13
2019-01-09T15:50:52.003Z,8.87
2019-01-09T15:53:22.381Z,8.90
2019-01-09T15:55:52.735Z,5.17
2019-01-09T15:58:23.142Z,4.93
2019-01-09T16:00:56.866Z,7.00
2019-01-09T16:03:27.308Z,6.13
2019-01-09T16:05:57.674Z,4.97
2019-01-09T16:08:28.145Z,7.40
2019-01-09T16:10:58.544Z,9.50
2019-01-09T16:13:28.981Z,7.07
2019-01-09T16:15:59.353Z,8.57
2019-01-09T16:18:29.777Z,7.27
2019-01-09T16:21:00.117Z,6.47
2019-01-09T16:23:30.506Z,4.13
2019-01-09T16:26:00.880Z,7.37
2019-01-09T16:28:31.263Z,6.87
2019-01-09T16:31:28.892Z,6.40
2019-01-09T16:33:59.335Z,7.17
2019-01-09T16:36:31.699Z,6.93
2019-01-09T16:39:02.102Z,7.33
2019-01-09T16:41:33.725Z,5.30
2019-01-09T16:44:04.104Z,8.43
2019-01-09T16:46:34.441Z,8.60
2019-01-09T16:49:04.861Z,10.00
2019-01-09T16:51:36.270Z,9.83
2019-01-09T16:54:06.737Z,6.13
2019-01-09T16:56:37.594Z,9.97
2019-01-09T16:59:08.145Z,6.63
2019-01-09T17:01:38.519Z,7.13
2019-01-09T17:04:09.616Z,6.93
2019-01-09T17:06:40.167Z,7.75
2019-01-09T17:09:10.565Z,10.43
2019-01-09T17:11:42.236Z,10.00
2019-01-09T17:14:13.226Z,9.60
2019-01-09T17:16:43.702Z,9.85
2019-01-09T17:19:14.152Z,9.77
2019-01-09T17:21:44.708Z,12.73
2019-01-09T17:24:15.185Z,9.03
2019-01-09T17:26:45.815Z,10.43
2019-01-09T17:29:16.306Z,7.73
2019-01-09T17:31:46.890Z,10.00
2019-01-09T17:34:17.378Z,10.73
2019-01-09T17:36:47.939Z,11.03
2019-01-09T17:39:18.443Z,13.27
2019-01-09T17:41:48.869Z,13.13
2019-01-09T17:44:19.273Z,13.77
2019-01-09T17:46:49.745Z,11.60
2019-01-09T17:49:20.191Z,16.57
2019-01-09T17:51:50.669Z,15.20
2019-01-09T17:54:21.077Z,15.93
2019-01-09T17:56:51.574Z,10.17
2019-01-09T17:59:22.078Z,12.70
2019-01-09T18:01:52.494Z,7.80
2019-01-09T18:04:23.049Z,11.33
2019-01-09T18:06:53.352Z,13.53
2019-01-09T18:09:23.797Z,10.30
2019-01-09T18:11:54.248Z,10.97
2019-01-09T18:14:24.752Z,11.77
2019-01-09T18:16:55.186Z,13.27
2019-01-09T18:19:25.710Z,13.47
2019-01-09T18:21:56.190Z,16.10
2019-01-09T18:24:27.025Z,19.17
2019-01-09T18:26:57.490Z,20.30
2019-01-09T18:29:27.973Z,10.60
2019-01-09T18:32:44.573Z,13.50
2019-01-09T18:35:27.397Z,18.40
2019-01-09T18:38:40.216Z,27.33
2019-01-09T18:41:56.058Z,19.70
2019-01-09T18:44:48.010Z,22.67
2019-01-09T18:47:41.952Z,24.57
2019-01-09T18:50:50.216Z,19.43
2019-01-09T18:53:42.957Z,23.70
2019-01-09T18:56:14.623Z,19.10
2019-01-09T18:58:44.989Z,17.40
2019-01-09T19:01:15.399Z,16.73
2019-01-09T19:03:45.988Z,13.73
2019-01-09T19:06:16.438Z,15.07
2019-01-09T19:08:46.887Z,14.97
2019-01-09T19:11:17.406Z,14.53
2019-01-09T19:13:47.775Z,17.67
2019-01-09T19:16:18.256Z,19.47
2019-01-09T19:18:48.735Z,15.50
2019-01-09T19:21:19.216Z,17.03
2019-01-09T19:23:49.566Z,18.73
2019-01-09T19:26:20.167Z,18.33
2019-01-09T19:28:51.547Z,18.57
2019-01-09T19:31:21.970Z,17.90
2019-01-09T19:33:52.318Z,19.90
2019-01-09T19:36:23.043Z,18.57
2019-01-09T19:38:53.509Z,18.93
2019-01-09T19:41:23.982Z,17.47
2019-01-09T19:43:54.352Z,15.93
2019-01-09T19:46:28.067Z,16.53
2019-01-09T19:48:58.429Z,20.83
2019-01-09T19:51:28.857Z,18.00
2019-01-09T19:53:59.483Z,17.10
2019-01-09T19:56:29.886Z,20.60
2019-01-09T19:59:00.410Z,19.53
2019-01-09T20:01:31.045Z,17.65
2019-01-09T20:04:01.580Z,22.57
2019-01-09T20:06:32.062Z,21.95
2019-01-09T20:09:02.427Z,21.83
2019-01-09T20:11:34.190Z,26.75
2019-01-09T20:14:05.101Z,26.37
2019-01-09T20:16:35.654Z,22.40
2019-01-09T20:19:06.091Z,34.47
2019-01-09T20:21:36.739Z,35.25
2019-01-09T20:24:08.234Z,35.00
2019-01-09T20:26:39.097Z,39.90
2019-01-09T20:29:09.525Z,25.50
2019-01-09T20:31:40.591Z,23.33
2019-01-09T20:34:11.017Z,19.40
2019-01-09T20:36:42.541Z,18.90
2019-01-09T20:39:13.148Z,15.87
2019-01-09T20:41:43.681Z,17.23
2019-01-09T20:44:14.401Z,21.30
2019-01-09T20:46:45.029Z,22.53
2019-01-09T20:49:15.591Z,23.73
2019-01-09T20:51:46.317Z,21.90
2019-01-09T20:54:36.073Z,23.10
2019-01-09T20:57:08.239Z,19.70
2019-01-09T20:59:38.717Z,20.03
2019-01-09T21:02:09.259Z,24.83
2019-01-09T21:04:39.790Z,25.40
2019-01-09T21:07:10.845Z,23.60
2019-01-09T21:09:42.234Z,19.60
2019-01-09T21:12:12.784Z,26.03
2019-01-09T21:14:43.176Z,25.63
2019-01-09T21:17:13.523Z,28.87
2019-01-09T21:19:43.870Z,32.90
2019-01-09T21:22:15.090Z,26.90
2019-01-09T21:24:45.489Z,34.00
2019-01-09T21:27:15.911Z,33.47
2019-01-09T21:29:46.268Z,32.07
2019-01-09T21:32:16.706Z,19.87
2019-01-09T21:34:47.042Z,21.13
2019-01-09T21:37:17.450Z,26.50
2019-01-09T21:39:47.789Z,17.27
2019-01-09T21:42:18.282Z,21.60
2019-01-09T21:44:48.613Z,18.33
2019-01-09T21:47:19.041Z,18.00
2019-01-09T21:49:49.391Z,14.73
2019-01-09T21:52:19.807Z,13.70
2019-01-09T21:55:09.338Z,14.50
2019-01-09T21:57:39.772Z,15.37
2019-01-09T22:00:22.393Z,18.97
2019-01-09T22:02:52.819Z,14.93
2019-01-09T22:05:25.456Z,15.27
2019-01-09T22:07:55.870Z,15.87
2019-01-09T22:10:31.928Z,14.90
2019-01-09T22:13:02.360Z,16.13
2019-01-09T22:15:32.712Z,19.37
2019-01-09T22:18:03.363Z,14.87
2019-01-09T22:20:33.713Z,19.13
2019-01-09T22:23:04.046Z,15.03
2019-01-09T22:25:34.379Z,17.93
2019-01-09T22:28:04.940Z,18.80
2019-01-09T22:30:35.322Z,18.37
2019-01-09T22:33:05.685Z,24.73
2019-01-09T22:35:41.401Z,69.30
2019-01-09T22:38:08.264Z,42.17
2019-01-09T22:40:38.661Z,25.23
2019-01-09T22:43:10.009Z,16.97
2019-01-09T22:45:40.342Z,19.33
2019-01-09T22:48:10.814Z,23.90
2019-01-09T22:50:41.122Z,26.20
2019-01-09T22:53:11.464Z,27.07
2019-01-09T22:55:41.782Z,29.17
2019-01-09T22:58:12.170Z,28.70
2019-01-09T23:01:09.629Z,43.90
2019-01-09T23:03:40.131Z,24.10
2019-01-09T23:06:10.707Z,26.00
2019-01-09T23:08:41.149Z,22.80
2019-01-09T23:11:11.841Z,24.37
2019-01-09T23:13:42.398Z,33.30
2019-01-09T23:16:12.865Z,241.90
2019-01-09T23:18:43.342Z,117.03
2019-01-09T23:21:13.718Z,176.80
2019-01-09T23:23:44.180Z,72.67
2019-01-09T23:26:14.464Z,38.07
2019-01-09T23:28:45.046Z,59.18
2019-01-09T23:31:15.363Z,63.50
2019-01-09T23:33:46.050Z,53.73
2019-01-09T23:36:16.445Z,43.30
2019-01-09T23:38:47.002Z,19.97
2019-01-09T23:41:17.608Z,16.73
2019-01-09T23:43:48.592Z,18.53
2019-01-09T23:46:19.907Z,20.97
2019-01-09T23:48:50.625Z,22.37
2019-01-09T23:51:20.980Z,22.73
2019-01-09T23:53:51.682Z,24.70
2019-01-09T23:56:22.033Z,22.40
2019-01-09T23:58:52.522Z,25.40
